Time;durP1;ratioP1;P1;durP2;ratioP2;P2;SDS_P1;SDS_P2;PMS_P1;PMS_P2;Temp;Humidity;BMP_temperature;BMP_pressure;BME280_temperature;BME280_humidity;BME280_pressure;Samples;Min_cycle;Max_cycle;Signal;HPM_P1;HPM_P2
2023/08/16 00:01:59;;;;;;;2.87;1.50;;;;;;;23.39;60.56;101697.06;5034522;27;97029;-52
2023/08/16 00:04:25;;;;;;;1.77;1.30;;;;;;;23.40;60.46;101700.59;5031843;27;98632;-51
2023/08/16 00:06:50;;;;;;;1.83;1.40;;;;;;;23.37;60.53;101694.03;5033709;27;97386;-52
2023/08/16 00:09:16;;;;;;;2.27;1.37;;;;;;;23.37;60.42;101696.09;5033511;27;96803;-52
2023/08/16 00:11:42;;;;;;;1.90;1.50;;;;;;;23.37;60.70;101705.25;5035570;27;97024;-52
2023/08/16 00:14:07;;;;;;;2.50;1.13;;;;;;;23.37;60.55;101699.63;5035211;27;97333;-50
2023/08/16 00:16:32;;;;;;;1.53;1.43;;;;;;;23.37;60.71;101698.91;5032794;27;96691;-53
2023/08/16 00:18:58;;;;;;;4.60;1.60;;;;;;;23.37;60.53;101694.03;5036483;27;97093;-50
2023/08/16 00:21:24;;;;;;;2.63;1.33;;;;;;;23.36;60.41;101698.16;5033115;27;97144;-50
2023/08/16 00:23:49;;;;;;;2.50;1.37;;;;;;;23.34;60.43;101694.41;5042353;27;97299;-50
2023/08/16 00:26:15;;;;;;;2.67;1.63;;;;;;;23.31;60.33;101690.59;5036077;27;97442;-52
2023/08/16 00:28:41;;;;;;;1.70;1.60;;;;;;;23.29;60.26;101692.47;5034852;27;97302;-51
2023/08/16 00:31:07;;;;;;;1.50;1.40;;;;;;;23.29;60.72;101686.84;5033240;27;96737;-51
2023/08/16 00:33:32;;;;;;;2.67;1.60;;;;;;;23.28;60.48;101694.56;5037724;27;97101;-50
2023/08/16 00:35:57;;;;;;;1.80;1.50;;;;;;;23.27;60.75;101697.91;5032810;27;100319;-51
2023/08/16 00:38:23;;;;;;;1.60;1.50;;;;;;;23.26;60.61;101690.78;5032719;27;97376;-50
2023/08/16 00:40:49;;;;;;;2.50;1.67;;;;;;;23.25;60.57;101687.22;5033216;27;102767;-51
2023/08/16 00:43:15;;;;;;;2.73;1.57;;;;;;;23.24;60.20;101696.22;5032828;27;97064;-49
2023/08/16 00:45:42;;;;;;;1.50;1.40;;;;;;;23.23;60.27;101694.69;5032866;27;97102;-51
2023/08/16 00:48:07;;;;;;;1.50;1.33;;;;;;;23.17;60.17;101703.31;5035162;27;97542;-50
2023/08/16 00:50:33;;;;;;;3.13;1.53;;;;;;;23.12;60.11;101690.19;5034847;27;96734;-51
2023/08/16 00:53:00;;;;;;;3.03;1.80;;;;;;;23.04;59.94;101695.00;5034959;27;97245;-50
2023/08/16 00:55:25;;;;;;;2.80;1.70;;;;;;;22.98;60.17;101691.59;5031527;27;97209;-50
2023/08/16 00:57:50;;;;;;;1.50;1.40;;;;;;;22.94;60.25;101696.81;5034971;27;98282;-51
2023/08/16 01:00:16;;;;;;;1.93;1.73;;;;;;;22.91;60.29;101690.25;5036007;27;97222;-49
2023/08/16 01:02:41;;;;;;;3.00;1.67;;;;;;;22.90;60.05;101685.22;5033507;27;97580;-50
2023/08/16 01:05:07;;;;;;;2.40;1.10;;;;;;;22.86;60.19;101685.56;5031207;27;110277;-52
2023/08/16 01:07:33;;;;;;;3.00;1.60;;;;;;;22.81;60.12;101685.72;5032946;27;97090;-50
2023/08/16 01:09:58;;;;;;;2.90;1.50;;;;;;;22.76;60.18;101681.03;5031738;27;96895;-49
2023/08/16 01:12:36;;;;;;;2.93;1.53;;;;;;;22.72;60.31;101686.97;5038174;27;97311;-50
2023/08/16 01:15:12;;;;;;;1.50;1.37;;;;;;;22.71;60.21;101687.53;5033411;27;97350;-51
2023/08/16 01:17:40;;;;;;;2.60;1.90;;;;;;;22.67;60.11;101689.97;5030774;27;97221;-50
2023/08/16 01:20:07;;;;;;;1.90;1.53;;;;;;;22.62;60.30;101688.81;5035452;27;96734;-52
2023/08/16 01:22:35;;;;;;;1.47;1.37;;;;;;;22.61;60.36;101698.50;5031823;27;96777;-51
2023/08/16 01:25:23;;;;;;;3.77;1.63;;;;;;;22.58;60.32;101696.81;5035868;27;99285;-50
2023/08/16 01:27:51;;;;;;;1.90;1.63;;;;;;;22.52;60.00;101684.22;5034035;27;96988;-51
2023/08/16 01:30:18;;;;;;;4.60;2.03;;;;;;;22.46;59.96;101687.16;5038460;27;96834;-50
2023/08/16 01:32:43;;;;;;;1.47;1.37;;;;;;;22.37;60.18;101693.28;5039232;27;97254;-50
2023/08/16 01:35:09;;;;;;;3.40;1.33;;;;;;;22.34;60.46;101691.59;5039679;27;97269;-51
2023/08/16 01:37:34;;;;;;;1.63;1.53;;;;;;;22.34;60.42;101703.53;5037141;27;99398;-51
2023/08/16 01:40:04;;;;;;;2.50;1.43;;;;;;;22.35;60.44;101704.28;5041383;27;97170;-51
2023/08/16 01:42:34;;;;;;;1.20;1.10;;;;;;;22.38;60.59;101706.75;5042642;27;96614;-50
2023/08/16 01:45:01;;;;;;;1.93;1.57;;;;;;;22.39;60.66;101713.84;5056336;27;97386;-50
2023/08/16 01:47:28;;;;;;;2.30;1.67;;;;;;;22.43;60.57;101715.56;5040230;27;96773;-52
2023/08/16 01:49:55;;;;;;;1.50;1.40;;;;;;;22.42;60.50;101712.00;5040677;27;96822;-51
2023/08/16 01:52:21;;;;;;;2.30;1.50;;;;;;;22.41;60.35;101715.38;5039267;27;99747;-51
2023/08/16 01:54:46;;;;;;;3.10;1.40;;;;;;;22.38;60.26;101714.41;5037034;27;98510;-52
2023/08/16 01:57:12;;;;;;;2.00;1.60;;;;;;;22.32;60.02;101702.59;5040488;27;97120;-50
2023/08/16 01:59:37;;;;;;;2.00;1.43;;;;;;;22.28;60.07;101697.31;5037440;27;96943;-50
2023/08/16 02:02:03;;;;;;;1.93;1.53;;;;;;;22.24;60.16;101693.38;5040554;27;97234;-51
2023/08/16 02:04:28;;;;;;;1.50;1.40;;;;;;;22.18;60.27;101701.16;5040505;27;97052;-50
2023/08/16 02:06:53;;;;;;;2.33;1.70;;;;;;;22.17;60.39;101702.50;5042529;27;96773;-51
2023/08/16 02:09:19;;;;;;;1.50;1.40;;;;;;;22.15;60.38;101711.44;5040277;27;96671;-51
2023/08/16 02:11:45;;;;;;;2.23;1.20;;;;;;;22.17;60.52;101722.13;5042581;27;96758;-50
2023/08/16 02:14:10;;;;;;;5.77;2.03;;;;;;;22.15;60.29;101710.66;5037851;27;97707;-52
2023/08/16 02:16:36;;;;;;;1.60;1.50;;;;;;;22.09;60.28;101710.81;5037075;27;100022;-51
2023/08/16 02:19:01;;;;;;;1.20;1.00;;;;;;;22.07;60.34;101719.03;5038601;27;97126;-50
2023/08/16 02:21:26;;;;;;;1.53;1.17;;;;;;;22.06;60.48;101719.59;5039613;27;97005;-53
2023/08/16 02:23:52;;;;;;;1.60;1.37;;;;;;;22.09;60.56;101715.66;5037051;27;96922;-53
2023/08/16 02:26:17;;;;;;;1.70;1.43;;;;;;;22.08;60.38;101717.72;5038162;27;97439;-51
2023/08/16 02:28:42;;;;;;;2.20;1.50;;;;;;;22.05;60.25;101721.63;5041546;27;97191;-50
2023/08/16 02:31:08;;;;;;;1.40;1.20;;;;;;;22.03;60.35;101713.00;5041830;27;96850;-50
2023/08/16 02:33:33;;;;;;;1.70;1.33;;;;;;;22.01;60.28;101714.84;5041384;27;97378;-52
2023/08/16 02:35:59;;;;;;;1.20;1.10;;;;;;;21.98;60.17;101710.34;5037467;27;97111;-50
2023/08/16 02:38:24;;;;;;;2.67;1.70;;;;;;;21.94;60.17;101713.50;5038362;27;97518;-51
2023/08/16 02:40:49;;;;;;;2.00;1.60;;;;;;;21.91;60.19;101719.44;5037762;27;97203;-50
2023/08/16 02:43:15;;;;;;;1.40;1.30;;;;;;;21.87;60.14;101713.41;5037039;27;96750;-52
2023/08/16 02:45:40;;;;;;;2.50;1.70;;;;;;;21.83;60.12;101704.59;5036788;27;97374;-51
2023/08/16 02:48:06;;;;;;;1.23;1.13;;;;;;;21.80;60.06;101705.66;5037275;27;96937;-51
2023/08/16 02:50:31;;;;;;;1.80;1.40;;;;;;;21.77;60.09;101707.50;5035631;27;96703;-52
2023/08/16 02:52:57;;;;;;;1.97;1.27;;;;;;;21.73;59.98;101712.72;5037960;27;97229;-50
2023/08/16 02:55:22;;;;;;;2.13;1.70;;;;;;;21.69;60.15;101705.94;5034858;27;97197;-52
2023/08/16 02:57:47;;;;;;;1.10;1.00;;;;;;;21.68;60.05;101705.19;5037167;27;97311;-51
2023/08/16 03:00:13;;;;;;;1.80;1.47;;;;;;;21.64;59.96;101705.50;5034292;27;98368;-50
2023/08/16 03:02:39;;;;;;;5.37;1.97;;;;;;;21.61;60.00;101705.84;5030582;27;96779;-51
2023/08/16 03:05:04;;;;;;;2.60;1.23;;;;;;;21.58;60.20;101707.69;5036456;27;100226;-50
2023/08/16 03:07:30;;;;;;;2.23;1.40;;;;;;;21.57;60.27;101708.22;5037507;27;97237;-52
2023/08/16 03:09:55;;;;;;;1.43;1.33;;;;;;;21.57;60.39;101720.19;5034865;27;96843;-51
2023/08/16 03:12:21;;;;;;;1.47;1.27;;;;;;;21.58;60.41;101712.53;5034184;27;97080;-50
2023/08/16 03:14:46;;;;;;;1.40;1.30;;;;;;;21.57;60.31;101733.44;5036023;27;97548;-52
2023/08/16 03:17:11;;;;;;;1.60;1.50;;;;;;;21.55;60.42;101724.81;5036026;27;96810;-51
2023/08/16 03:19:37;;;;;;;3.00;1.00;;;;;;;21.52;60.25;101728.69;5035977;27;97025;-51
2023/08/16 03:22:02;;;;;;;1.77;1.67;;;;;;;21.48;60.23;101743.06;5034352;27;97143;-50
2023/08/16 03:24:28;;;;;;;1.97;1.23;;;;;;;21.46;60.02;101736.47;5037157;27;96900;-50
2023/08/16 03:26:53;;;;;;;1.50;1.37;;;;;;;21.42;59.97;101745.22;5033851;27;97146;-50
2023/08/16 03:29:18;;;;;;;1.23;1.10;;;;;;;21.39;59.82;101739.94;5027811;27;97170;-50
2023/08/16 03:31:44;;;;;;;1.37;1.10;;;;;;;21.33;59.99;101748.47;5034986;27;97157;-52
2023/08/16 03:34:09;;;;;;;2.60;1.20;;;;;;;21.28;59.91;101732.53;5032497;27;99092;-53
2023/08/16 03:36:34;;;;;;;1.43;1.33;;;;;;;21.25;59.99;101735.69;5034340;27;96966;-53
2023/08/16 03:39:00;;;;;;;2.10;1.40;;;;;;;21.21;60.12;101744.38;5034875;27;97337;-51
2023/08/16 03:41:25;;;;;;;1.30;1.20;;;;;;;21.21;60.32;101743.66;5033844;27;97862;-51
2023/08/16 03:43:50;;;;;;;2.27;1.13;;;;;;;21.22;60.39;101754.31;5032509;27;105213;-53
2023/08/16 03:46:16;;;;;;;1.40;1.30;;;;;;;21.22;60.25;101751.50;5034781;27;96768;-52
2023/08/16 03:48:41;;;;;;;1.40;1.30;;;;;;;21.23;60.44;101753.00;5036757;27;96960;-51
2023/08/16 03:51:06;;;;;;;1.33;1.13;;;;;;;21.24;60.41;101762.16;5032766;27;103498;-51
2023/08/16 03:53:31;;;;;;;3.50;1.90;;;;;;;21.39;60.12;101762.34;5023716;27;97955;-52
2023/08/16 03:55:58;;;;;;;1.50;1.10;;;;;;;21.26;60.01;101768.72;5030668;27;100508;-51
2023/08/16 03:58:24;;;;;;;1.10;1.03;;;;;;;21.17;60.08;101776.78;5033488;27;96808;-51
2023/08/16 04:00:53;;;;;;;6.40;1.47;;;;;;;21.12;60.17;101774.88;5030820;27;97282;-48
2023/08/16 04:03:19;;;;;;;1.33;1.23;;;;;;;21.08;60.25;101777.97;5034586;27;97753;-50
2023/08/16 04:05:44;;;;;;;3.00;1.33;;;;;;;21.07;60.29;101787.69;5035173;27;97153;-50
2023/08/16 04:08:09;;;;;;;1.70;1.60;;;;;;;21.07;60.27;101792.53;5032967;27;97242;-48
2023/08/16 04:10:35;;;;;;;1.83;1.23;;;;;;;21.09;60.18;101792.75;5034299;27;97011;-50
2023/08/16 04:13:01;;;;;;;2.10;1.70;;;;;;;21.17;59.99;101790.78;5032496;27;97538;-50
2023/08/16 04:15:26;;;;;;;1.73;1.40;;;;;;;21.09;60.22;101781.53;5032891;27;97550;-49
2023/08/16 04:17:51;;;;;;;1.60;1.03;;;;;;;21.04;60.19;101783.16;5028206;27;98009;-50
2023/08/16 04:20:17;;;;;;;2.47;1.67;;;;;;;21.03;60.46;101797.66;5034609;27;97043;-49
2023/08/16 04:22:42;;;;;;;4.10;1.40;;;;;;;21.02;60.78;101796.16;5034202;27;97856;-48
2023/08/16 04:25:08;;;;;;;1.63;1.10;;;;;;;21.04;60.88;101801.97;5031552;27;96926;-50
2023/08/16 04:27:33;;;;;;;1.70;1.50;;;;;;;21.06;60.69;101802.19;5034637;27;97232;-50
2023/08/16 04:29:59;;;;;;;2.77;1.57;;;;;;;21.07;60.73;101800.91;5034365;27;97711;-49
2023/08/16 04:32:24;;;;;;;1.37;1.20;;;;;;;21.07;60.81;101823.31;5033399;27;98802;-49
2023/08/16 04:34:49;;;;;;;1.63;1.53;;;;;;;21.07;60.75;101803.72;5032685;27;96958;-49
2023/08/16 04:37:14;;;;;;;1.30;1.20;;;;;;;21.05;60.69;101803.50;5033631;27;97020;-47
2023/08/16 04:39:40;;;;;;;1.60;1.50;;;;;;;21.03;60.78;101806.84;5034407;27;97760;-48
2023/08/16 04:42:05;;;;;;;1.40;1.30;;;;;;;21.02;60.75;101810.13;5032918;27;110406;-50
2023/08/16 04:44:30;;;;;;;2.60;1.60;;;;;;;21.02;60.97;101804.53;5032846;27;96855;-50
2023/08/16 04:46:56;;;;;;;1.63;1.53;;;;;;;21.04;61.15;101810.38;5031460;27;96799;-49
2023/08/16 04:49:22;;;;;;;1.50;1.40;;;;;;;21.04;61.05;101827.94;5033078;27;97098;-49
2023/08/16 04:51:47;;;;;;;4.83;1.30;;;;;;;21.06;60.82;101807.78;5033737;27;101513;-49
2023/08/16 04:54:13;;;;;;;2.63;1.30;;;;;;;21.04;60.96;101815.97;5037486;27;97225;-51
2023/08/16 04:56:38;;;;;;;1.80;1.67;;;;;;;21.06;61.12;101805.00;5034032;27;96677;-48
2023/08/16 04:59:03;;;;;;;1.40;1.10;;;;;;;21.08;61.10;101813.63;5032142;27;97024;-47
2023/08/16 05:01:29;;;;;;;1.50;1.40;;;;;;;21.09;61.24;101817.94;5035838;27;97180;-50
2023/08/16 05:03:54;;;;;;;1.50;1.40;;;;;;;21.12;61.37;101816.84;5033441;27;97604;-50
2023/08/16 05:06:19;;;;;;;1.50;1.40;;;;;;;21.14;61.29;101820.63;5035534;27;96717;-50
2023/08/16 05:08:45;;;;;;;1.73;1.47;;;;;;;21.17;61.30;101827.94;5034393;27;99368;-52
2023/08/16 05:11:10;;;;;;;3.60;1.30;;;;;;;21.18;61.32;101825.91;5041801;27;97594;-48
2023/08/16 05:13:36;;;;;;;2.30;1.80;;;;;;;21.19;61.24;101819.00;5034641;27;97016;-49
2023/08/16 05:16:01;;;;;;;1.80;1.70;;;;;;;21.19;61.22;101827.38;5031704;27;97190;-49
2023/08/16 05:18:26;;;;;;;1.80;1.33;;;;;;;21.16;61.38;101828.47;5036649;27;97745;-48
2023/08/16 05:20:55;;;;;;;2.40;1.40;;;;;;;21.17;61.50;101822.34;5031255;27;97434;-50
2023/08/16 05:23:21;;;;;;;1.63;1.40;;;;;;;21.17;61.63;101830.72;5030394;27;97075;-48
2023/08/16 05:25:46;;;;;;;1.40;1.30;;;;;;;21.18;61.36;101842.69;5038915;27;98547;-52
2023/08/16 05:28:11;;;;;;;3.20;1.40;;;;;;;21.18;61.22;101837.84;5033192;27;110397;-50
2023/08/16 05:30:36;;;;;;;1.80;1.47;;;;;;;21.18;61.58;101843.44;5033572;27;100375;-50
2023/08/16 05:33:03;;;;;;;1.60;1.50;;;;;;;21.20;61.68;101851.31;5028206;27;97052;-49
2023/08/16 05:35:32;;;;;;;3.03;1.40;;;;;;;21.20;61.63;101854.09;5033045;27;96735;-51
2023/08/16 05:37:57;;;;;;;2.10;1.57;;;;;;;21.19;61.85;101858.19;5031673;27;97203;-49
2023/08/16 05:40:23;;;;;;;1.67;1.37;;;;;;;21.20;61.83;101868.09;5031125;27;106930;-50
2023/08/16 05:42:48;;;;;;;5.70;1.30;;;;;;;21.25;61.92;101875.66;5035402;27;96818;-50
2023/08/16 05:45:14;;;;;;;2.00;1.67;;;;;;;21.26;61.93;101872.31;5034299;27;97266;-49
2023/08/16 05:47:39;;;;;;;1.77;1.40;;;;;;;21.25;61.91;101864.44;5032742;27;97305;-51
2023/08/16 05:50:05;;;;;;;1.60;1.50;;;;;;;21.24;61.88;101862.94;5033167;27;96780;-49
2023/08/16 05:52:31;;;;;;;1.43;1.33;;;;;;;21.20;61.84;101863.25;5032773;27;97015;-49
2023/08/16 05:54:56;;;;;;;1.77;1.40;;;;;;;21.19;62.18;101860.97;5032565;27;97422;-48
2023/08/16 05:57:21;;;;;;;1.93;1.80;;;;;;;21.20;62.13;101868.84;5033290;27;102444;-50
2023/08/16 05:59:47;;;;;;;1.20;1.20;;;;;;;21.25;62.07;101876.38;5032746;27;97119;-50
2023/08/16 06:02:12;;;;;;;3.33;1.30;;;;;;;21.29;62.16;101876.06;5035214;27;97172;-51
2023/08/16 06:04:38;;;;;;;2.70;1.27;;;;;;;21.33;62.07;101877.25;5034696;27;96992;-51
2023/08/16 06:07:04;;;;;;;1.30;1.10;;;;;;;21.37;61.94;101874.13;5033192;27;97395;-48
2023/08/16 06:09:30;;;;;;;5.13;1.73;;;;;;;21.40;61.87;101885.03;5033198;27;96731;-51
2023/08/16 06:11:56;;;;;;;4.23;1.60;;;;;;;21.44;61.90;101876.28;5032521;27;97068;-49
2023/08/16 06:14:22;;;;;;;3.33;1.43;;;;;;;21.43;61.67;101878.31;5031370;27;96930;-49
2023/08/16 06:16:47;;;;;;;2.57;1.50;;;;;;;21.41;61.83;101882.97;5032182;27;97847;-49
2023/08/16 06:19:14;;;;;;;1.73;1.30;;;;;;;21.36;61.95;101887.38;5036163;27;97311;-50
2023/08/16 06:21:40;;;;;;;1.67;1.57;;;;;;;21.36;61.99;101881.75;5036916;27;96880;-48
2023/08/16 06:24:06;;;;;;;2.00;1.40;;;;;;;21.40;61.96;101887.06;5034364;27;97120;-49
2023/08/16 06:26:31;;;;;;;1.30;1.17;;;;;;;21.41;61.99;101894.91;5034049;27;97311;-51
2023/08/16 06:28:58;;;;;;;5.07;1.57;;;;;;;21.40;61.96;101896.22;5031129;27;99683;-50
2023/08/16 06:31:23;;;;;;;1.77;1.10;;;;;;;21.44;61.80;101904.28;5039111;27;96737;-50
2023/08/16 06:33:48;;;;;;;1.57;1.20;;;;;;;21.44;61.77;101909.88;5038417;27;97073;-48
2023/08/16 06:36:14;;;;;;;3.97;1.43;;;;;;;21.46;61.60;101915.72;5036248;27;105791;-49
2023/08/16 06:38:39;;;;;;;1.50;1.37;;;;;;;21.46;62.03;101912.91;5033876;27;97727;-50
2023/08/16 06:41:04;;;;;;;2.80;1.40;;;;;;;21.42;61.93;101926.47;5036267;27;97248;-50
2023/08/16 06:43:30;;;;;;;3.23;1.27;;;;;;;21.38;61.91;101923.97;5033236;27;97195;-50
2023/08/16 06:45:56;;;;;;;2.03;1.47;;;;;;;21.38;62.17;101926.78;5032409;27;96889;-50
2023/08/16 06:48:22;;;;;;;2.20;1.17;;;;;;;21.35;62.14;101925.06;5034593;27;96745;-50
2023/08/16 06:50:47;;;;;;;2.00;1.37;;;;;;;21.36;62.18;101945.44;5034392;27;96848;-49
2023/08/16 06:53:12;;;;;;;2.80;1.50;;;;;;;21.36;62.31;101960.16;5034338;27;97210;-49
2023/08/16 06:55:38;;;;;;;2.03;1.33;;;;;;;21.38;62.41;101959.66;5033214;27;106837;-51
2023/08/16 06:58:06;;;;;;;1.63;1.30;;;;;;;21.40;62.42;101971.06;5036054;27;97687;-50
2023/08/16 07:00:32;;;;;;;1.40;1.30;;;;;;;21.41;62.51;101978.16;5032530;27;97145;-49
2023/08/16 07:02:58;;;;;;;1.57;1.20;;;;;;;21.41;62.47;101978.16;5038222;27;96844;-50
2023/08/16 07:05:26;;;;;;;1.80;1.43;;;;;;;21.39;62.32;101975.91;5035962;27;97320;-49
2023/08/16 07:07:52;;;;;;;2.37;1.30;;;;;;;21.35;62.66;101963.50;5035977;27;96715;-49
2023/08/16 07:10:17;;;;;;;1.50;1.40;;;;;;;21.31;62.56;101963.06;5033548;27;97196;-49
2023/08/16 07:12:44;;;;;;;1.83;1.30;;;;;;;21.27;62.87;101965.44;5035756;27;97095;-49
2023/08/16 07:15:11;;;;;;;3.40;1.70;;;;;;;21.27;62.90;101976.66;5033590;27;97240;-50
2023/08/16 07:17:40;;;;;;;1.50;1.33;;;;;;;21.20;63.05;101971.66;5034627;27;96643;-50
2023/08/16 07:20:09;;;;;;;2.13;1.43;;;;;;;21.16;63.22;101971.22;5035541;27;97520;-50
2023/08/16 07:22:37;;;;;;;3.07;1.47;;;;;;;21.14;63.13;101971.00;5032896;27;97431;-49
2023/08/16 07:25:06;;;;;;;3.23;1.60;;;;;;;21.16;63.28;101974.78;5029302;27;97318;-49
2023/08/16 07:27:32;;;;;;;2.37;1.67;;;;;;;21.17;63.30;101969.94;5033634;27;98567;-50
2023/08/16 07:29:57;;;;;;;3.00;1.90;;;;;;;21.17;63.30;101981.13;5036307;27;97352;-51
2023/08/16 07:32:23;;;;;;;3.00;1.70;;;;;;;21.18;63.30;101965.84;5035403;27;97565;-50
2023/08/16 07:34:48;;;;;;;1.70;1.53;;;;;;;21.17;63.33;101965.09;5034800;27;97177;-48
2023/08/16 07:37:14;;;;;;;1.63;1.53;;;;;;;21.14;63.52;101965.41;5032199;27;98360;-50
2023/08/16 07:39:40;;;;;;;4.57;1.80;;;;;;;21.10;63.51;101964.97;5034525;27;97095;-49
2023/08/16 07:42:07;;;;;;;1.93;1.33;;;;;;;21.06;63.52;101959.69;5034843;27;96802;-50
2023/08/16 07:44:33;;;;;;;2.03;1.50;;;;;;;21.02;63.44;101953.63;5031314;27;98712;-50
2023/08/16 07:47:00;;;;;;;1.57;1.47;;;;;;;20.98;63.51;101958.78;5032858;27;97099;-50
2023/08/16 07:49:25;;;;;;;2.33;1.53;;;;;;;20.94;63.52;101966.72;5033343;27;97362;-49
2023/08/16 07:51:51;;;;;;;1.80;1.70;;;;;;;20.91;63.55;101965.75;5033374;27;97079;-50
2023/08/16 07:54:16;;;;;;;1.57;1.47;;;;;;;20.87;63.46;101975.75;5031021;27;97203;-50
2023/08/16 07:56:41;;;;;;;123.10;38.40;;;;;;;20.99;64.41;101968.66;5030907;27;97662;-51
2023/08/16 07:59:07;;;;;;;5.33;1.73;;;;;;;20.86;64.23;101974.97;5033315;27;97264;-50
2023/08/16 08:01:32;;;;;;;1.43;1.33;;;;;;;20.81;64.30;101969.47;5032813;27;96977;-50
2023/08/16 08:03:58;;;;;;;2.90;1.70;;;;;;;20.76;64.06;101976.66;5033694;27;97221;-51
2023/08/16 08:06:23;;;;;;;3.97;1.53;;;;;;;20.69;64.10;101970.94;5031798;27;108418;-51
2023/08/16 08:08:48;;;;;;;3.63;1.53;;;;;;;20.62;64.08;101977.16;5032880;27;97148;-50
2023/08/16 08:11:14;;;;;;;1.60;1.37;;;;;;;20.59;64.30;101981.75;5032831;27;97169;-50
2023/08/16 08:13:39;;;;;;;3.43;1.40;;;;;;;20.56;64.35;101987.66;5030984;27;97279;-51
2023/08/16 08:16:06;;;;;;;7.47;1.83;;;;;;;20.51;64.25;101988.50;5031591;27;109512;-49
2023/08/16 08:18:31;;;;;;;1.50;1.33;;;;;;;20.51;64.23;101992.03;5035076;27;97180;-50
2023/08/16 08:20:59;;;;;;;2.97;1.60;;;;;;;20.52;64.34;101985.16;5034975;27;97359;-50
2023/08/16 08:23:24;;;;;;;4.23;2.10;;;;;;;20.53;64.06;101985.94;5032387;27;101274;-50
2023/08/16 08:25:49;;;;;;;1.83;1.60;;;;;;;20.48;64.16;101981.91;5033404;27;100792;-50
2023/08/16 08:28:16;;;;;;;1.83;1.60;;;;;;;20.46;64.22;101984.50;5030772;27;100955;-50
2023/08/16 08:30:41;;;;;;;2.00;1.43;;;;;;;20.46;64.28;101978.91;5035966;27;97382;-50
2023/08/16 08:33:06;;;;;;;1.47;1.20;;;;;;;20.42;64.36;101975.63;5031337;27;105915;-50
2023/08/16 08:35:33;;;;;;;1.73;1.63;;;;;;;20.36;64.24;101966.56;5031474;27;108065;-50
2023/08/16 08:37:58;;;;;;;3.10;1.37;;;;;;;20.30;64.41;101967.94;5033157;27;97080;-49
2023/08/16 08:40:24;;;;;;;4.50;1.70;;;;;;;20.26;64.58;101973.06;5033603;27;97326;-49
2023/08/16 08:42:50;;;;;;;1.73;1.47;;;;;;;20.27;64.75;101972.53;5032752;27;97300;-50
2023/08/16 08:45:15;;;;;;;2.73;1.47;;;;;;;20.29;64.71;101975.56;5035783;27;97302;-50
2023/08/16 08:47:43;;;;;;;2.13;1.17;;;;;;;20.33;64.90;101983.66;5032796;27;96994;-50
2023/08/16 08:50:09;;;;;;;1.50;1.40;;;;;;;20.38;64.88;101991.22;5032100;27;96706;-49
2023/08/16 08:52:34;;;;;;;2.17;1.50;;;;;;;20.39;64.63;101996.28;5029334;27;97156;-51
2023/08/16 08:55:00;;;;;;;2.10;1.43;;;;;;;20.40;64.69;101985.84;5033731;27;97708;-49
2023/08/16 08:57:28;;;;;;;4.10;1.60;;;;;;;20.38;64.68;101975.19;5033814;27;97142;-50
2023/08/16 08:59:58;;;;;;;3.13;1.47;;;;;;;20.36;64.75;101974.19;5030358;27;97395;-49
2023/08/16 09:02:24;;;;;;;1.50;1.40;;;;;;;20.33;64.82;101989.25;5035125;27;97588;-50
2023/08/16 09:04:51;;;;;;;5.50;1.50;;;;;;;20.31;64.77;101989.03;5035140;27;97332;-49
2023/08/16 09:07:17;;;;;;;2.20;1.37;;;;;;;20.29;64.82;101988.78;5034496;27;97152;-49
2023/08/16 09:09:48;;;;;;;2.10;1.40;;;;;;;20.26;64.97;101982.22;5033371;27;97011;-49
2023/08/16 09:12:14;;;;;;;1.80;1.27;;;;;;;20.28;65.09;101985.22;5032407;27;97434;-49
2023/08/16 09:14:39;;;;;;;1.40;1.30;;;;;;;20.33;65.18;101986.44;5034360;27;97073;-50
2023/08/16 09:17:05;;;;;;;1.97;1.87;;;;;;;20.39;65.28;101987.88;5032853;27;101212;-49
2023/08/16 09:19:30;;;;;;;1.67;1.40;;;;;;;20.44;65.34;101989.09;5032329;27;100715;-49
2023/08/16 09:21:56;;;;;;;2.37;1.43;;;;;;;20.49;65.34;101993.84;5032682;27;100058;-49
2023/08/16 09:24:25;;;;;;;1.90;1.50;;;;;;;20.52;65.09;101990.75;5030951;27;96690;-48
2023/08/16 09:26:52;;;;;;;6.10;1.60;;;;;;;20.51;65.12;101991.28;5030486;27;96890;-49
2023/08/16 09:29:18;;;;;;;1.80;1.30;;;;;;;20.53;65.47;101997.13;5031876;27;97047;-49
2023/08/16 09:31:43;;;;;;;1.40;1.23;;;;;;;20.56;65.32;101996.78;5031619;27;97827;-50
2023/08/16 09:34:11;;;;;;;1.90;1.70;;;;;;;20.62;65.15;101994.66;5030304;27;96710;-49
2023/08/16 09:36:37;;;;;;;2.80;1.80;;;;;;;20.62;65.37;101989.06;5032122;27;96741;-49
2023/08/16 09:39:08;;;;;;;2.90;1.50;;;;;;;20.67;65.63;101985.44;5033691;27;97476;-49
2023/08/16 09:41:34;;;;;;;1.80;1.70;;;;;;;20.76;65.68;101992.69;5033770;27;96622;-50
2023/08/16 09:44:06;;;;;;;3.67;2.27;;;;;;;20.82;65.49;101987.75;5032006;27;97153;-49
2023/08/16 09:46:33;;;;;;;3.17;1.60;;;;;;;20.83;65.34;101987.25;5033758;27;97192;-49
2023/08/16 09:49:06;;;;;;;3.07;2.13;;;;;;;20.87;65.60;101986.94;5032799;27;97146;-49
2023/08/16 09:51:33;;;;;;;1.63;1.50;;;;;;;20.94;65.65;101986.31;5032352;27;97406;-50
2023/08/16 09:54:01;;;;;;;4.47;2.03;;;;;;;21.00;65.47;101977.81;5034809;27;98967;-49
2023/08/16 09:56:30;;;;;;;3.13;1.90;;;;;;;21.05;65.69;101974.22;5034360;27;97420;-49
2023/08/16 09:58:56;;;;;;;1.83;1.73;;;;;;;21.12;65.67;101973.59;5035834;27;97257;-49
2023/08/16 10:01:22;;;;;;;2.47;1.63;;;;;;;21.20;65.77;101986.44;5036918;27;97002;-49
2023/08/16 10:03:53;;;;;;;2.13;1.80;;;;;;;21.28;65.75;101978.13;5035245;27;97292;-49
2023/08/16 10:06:26;;;;;;;2.13;1.93;;;;;;;21.32;65.68;101981.38;5037874;27;97423;-49
2023/08/16 10:08:52;;;;;;;1.80;1.70;;;;;;;21.37;65.55;101984.09;5036889;27;96970;-50
2023/08/16 10:11:18;;;;;;;4.07;1.53;;;;;;;21.45;65.64;101984.19;5032773;27;97026;-48
2023/08/16 10:13:44;;;;;;;2.93;2.00;;;;;;;21.53;65.68;101979.47;5034540;27;97288;-49
2023/08/16 10:16:15;;;;;;;4.50;1.87;;;;;;;21.61;65.57;101985.94;5034442;27;97425;-50
2023/08/16 10:18:46;;;;;;;1.37;1.27;;;;;;;21.69;65.63;101986.81;5035674;27;97594;-49
2023/08/16 10:21:18;;;;;;;3.60;1.77;;;;;;;21.79;65.58;102006.75;5034594;27;97394;-49
2023/08/16 10:23:47;;;;;;;3.30;2.30;;;;;;;21.85;65.61;102002.56;5034767;27;96733;-50
2023/08/16 10:26:15;;;;;;;5.30;2.17;;;;;;;21.92;65.57;101995.56;5035443;27;97264;-49
2023/08/16 10:28:50;;;;;;;2.00;1.60;;;;;;;22.01;65.82;101989.53;5036464;27;96789;-49
2023/08/16 10:31:20;;;;;;;2.37;1.60;;;;;;;22.06;65.55;101992.22;5037027;27;97473;-49
2023/08/16 10:33:49;;;;;;;2.70;1.60;;;;;;;22.16;65.65;101978.50;5033880;27;97326;-49
2023/08/16 10:36:15;;;;;;;2.70;1.80;;;;;;;22.25;65.56;101981.63;5033983;27;97276;-50
2023/08/16 10:38:47;;;;;;;1.80;1.60;;;;;;;22.27;65.12;101979.03;5034929;27;97119;-49
2023/08/16 10:41:14;;;;;;;3.60;2.40;;;;;;;22.30;65.32;101975.13;5037472;27;97677;-50
2023/08/16 10:43:45;;;;;;;1.53;1.43;;;;;;;22.44;65.44;101970.25;5035254;27;98371;-50
2023/08/16 10:46:11;;;;;;;3.23;1.77;;;;;;;22.59;64.99;101969.66;5035540;27;96921;-48
2023/08/16 10:48:36;;;;;;;2.50;1.47;;;;;;;22.66;64.97;101961.34;5032980;27;96829;-50
2023/08/16 10:51:07;;;;;;;4.33;1.70;;;;;;;22.70;64.92;101966.63;5034035;27;97085;-49
2023/08/16 10:53:34;;;;;;;1.80;1.70;;;;;;;22.70;64.78;101964.56;5035485;27;97172;-51
2023/08/16 10:56:07;;;;;;;1.77;1.67;;;;;;;22.72;64.73;101975.25;5034986;27;97727;-49
2023/08/16 10:58:43;;;;;;;1.70;1.60;;;;;;;22.71;64.78;101966.09;5035438;27;96638;-48
2023/08/16 11:01:09;;;;;;;1.40;1.23;;;;;;;22.72;64.53;101967.59;5035249;27;97409;-48
2023/08/16 11:03:35;;;;;;;1.40;1.30;;;;;;;22.78;64.88;101967.47;5035765;27;97316;-48
2023/08/16 11:06:07;;;;;;;2.20;1.30;;;;;;;22.86;64.77;101973.91;5035230;27;97112;-49
2023/08/16 11:08:32;;;;;;;1.87;1.60;;;;;;;22.91;64.63;101973.75;5037227;27;97088;-49
2023/08/16 11:11:01;;;;;;;1.97;1.40;;;;;;;22.98;64.59;101978.69;5036845;27;97625;-49
2023/08/16 11:13:28;;;;;;;1.70;1.60;;;;;;;23.14;64.68;101979.56;5034208;27;97690;-48
2023/08/16 11:15:53;;;;;;;1.93;1.30;;;;;;;23.35;64.19;101985.94;5034868;27;97045;-51
2023/08/16 11:18:28;;;;;;;1.53;1.43;;;;;;;23.51;64.59;101984.78;5036004;27;96977;-48
2023/08/16 11:20:53;;;;;;;1.53;1.27;;;;;;;23.52;63.55;101982.72;5036954;27;97624;-49